createdAt,value
2017-05-11T00:00:11.151Z,0
2017-05-11T00:01:11.762Z,0
2017-05-11T00:02:12.372Z,0
2017-05-11T00:03:12.991Z,0
2017-05-11T00:04:13.599Z,0
2017-05-11T00:05:14.215Z,0
2017-05-11T00:06:14.873Z,0
2017-05-11T00:07:15.493Z,0
2017-05-11T00:08:16.143Z,0
2017-05-11T00:09:16.757Z,0
2017-05-11T00:10:17.361Z,0
2017-05-11T00:11:17.972Z,0
2017-05-11T00:12:18.583Z,0
2017-05-11T00:13:19.195Z,0
2017-05-11T00:14:19.805Z,0
2017-05-11T00:15:20.418Z,0
2017-05-11T00:16:21.077Z,0
2017-05-11T00:17:21.690Z,0
2017-05-11T00:18:22.306Z,0
2017-05-11T00:19:22.918Z,0
2017-05-11T00:20:23.534Z,0
2017-05-11T00:21:24.197Z,0
2017-05-11T00:22:24.803Z,0
2017-05-11T00:23:25.449Z,0
2017-05-11T00:24:26.066Z,0
2017-05-11T00:25:26.674Z,0
2017-05-11T00:26:27.342Z,0
2017-05-11T00:27:27.948Z,0
2017-05-11T00:28:28.561Z,0
2017-05-11T00:29:29.203Z,0
2017-05-11T00:30:29.818Z,0
2017-05-11T00:31:30.483Z,0
2017-05-11T00:32:31.090Z,0
2017-05-11T00:33:31.700Z,0
2017-05-11T00:34:32.312Z,0
2017-05-11T00:35:32.925Z,0
2017-05-11T00:36:33.595Z,0
2017-05-11T00:37:34.202Z,0
2017-05-11T00:38:34.819Z,0
2017-05-11T00:39:35.428Z,0
2017-05-11T00:40:36.042Z,0
2017-05-11T00:41:36.701Z,0
2017-05-11T00:42:37.313Z,0
2017-05-11T00:43:37.923Z,0
2017-05-11T00:44:38.534Z,0
2017-05-11T00:45:39.145Z,0
2017-05-11T00:46:39.805Z,0
2017-05-11T00:47:40.417Z,0
2017-05-11T00:48:41.030Z,0
2017-05-11T00:49:41.646Z,0
2017-05-11T00:50:42.259Z,0
2017-05-11T00:51:42.873Z,0
2017-05-11T00:52:43.480Z,0
2017-05-11T00:53:44.093Z,0
2017-05-11T00:54:44.703Z,0
2017-05-11T00:55:45.313Z,0
2017-05-11T00:56:45.925Z,0
2017-05-11T00:57:46.534Z,0
2017-05-11T00:58:47.150Z,0
2017-05-11T00:59:47.760Z,0
2017-05-11T01:00:48.376Z,0
2017-05-11T01:01:48.983Z,0
2017-05-11T01:02:49.634Z,0
2017-05-11T01:03:50.241Z,0
2017-05-11T01:04:50.858Z,0
2017-05-11T01:05:51.472Z,0
2017-05-11T01:06:52.078Z,0
2017-05-11T01:07:52.689Z,0
2017-05-11T01:08:53.299Z,0
2017-05-11T01:09:53.909Z,0
2017-05-11T01:10:54.519Z,0
2017-05-11T01:11:55.185Z,0
2017-05-11T01:12:55.793Z,0
2017-05-11T01:13:56.403Z,0
2017-05-11T01:14:57.018Z,0
2017-05-11T01:15:57.627Z,0
2017-05-11T01:16:58.242Z,0
2017-05-11T01:17:58.853Z,0
2017-05-11T01:18:59.467Z,0
2017-05-11T01:20:00.076Z,0
2017-05-11T01:21:00.695Z,0
2017-05-11T01:22:01.307Z,0
2017-05-11T01:23:01.912Z,0
2017-05-11T01:24:02.530Z,0
2017-05-11T01:25:03.139Z,0
2017-05-11T01:26:03.753Z,0
2017-05-11T01:27:04.411Z,0
2017-05-11T01:28:05.022Z,0
2017-05-11T01:29:05.640Z,0
2017-05-11T01:30:06.248Z,0
2017-05-11T01:31:06.857Z,0
2017-05-11T01:32:07.468Z,0
2017-05-11T01:33:08.085Z,0
2017-05-11T01:34:08.692Z,0
2017-05-11T01:35:09.301Z,0
2017-05-11T01:36:09.911Z,0
2017-05-11T01:37:10.570Z,0
2017-05-11T01:38:11.185Z,0
2017-05-11T01:39:11.793Z,0
2017-05-11T01:40:12.404Z,0
2017-05-11T01:41:13.013Z,0
2017-05-11T01:42:13.625Z,0
2017-05-11T01:43:14.235Z,0
2017-05-11T01:44:14.846Z,0
2017-05-11T01:45:15.462Z,0
2017-05-11T01:46:16.074Z,0
2017-05-11T01:47:16.688Z,0
2017-05-11T01:48:17.297Z,0
2017-05-11T01:49:17.909Z,0
2017-05-11T01:50:18.519Z,0
2017-05-11T01:51:19.127Z,0
2017-05-11T01:52:19.793Z,0
2017-05-11T01:53:20.399Z,0
2017-05-11T01:54:21.016Z,0
2017-05-11T01:55:21.631Z,0
2017-05-11T01:56:22.239Z,0
2017-05-11T01:57:22.850Z,0
2017-05-11T01:58:23.465Z,0
2017-05-11T01:59:24.114Z,0
2017-05-11T02:00:24.724Z,0
2017-05-11T02:01:25.333Z,0
2017-05-11T02:02:25.949Z,0
2017-05-11T02:03:26.561Z,0
2017-05-11T02:04:27.169Z,0
2017-05-11T02:05:27.781Z,0
2017-05-11T02:06:28.391Z,0
2017-05-11T02:07:29.003Z,0
2017-05-11T02:08:29.613Z,0
2017-05-11T02:09:30.223Z,0
2017-05-11T02:10:30.833Z,0
2017-05-11T02:11:31.442Z,0
2017-05-11T02:12:32.053Z,0
2017-05-11T02:13:32.669Z,0
2017-05-11T02:14:33.316Z,0
2017-05-11T02:15:33.923Z,0
2017-05-11T02:16:34.532Z,0
2017-05-11T02:17:35.197Z,0
2017-05-11T02:18:35.805Z,0
2017-05-11T02:19:36.420Z,0
2017-05-11T02:20:37.026Z,0
2017-05-11T02:21:37.636Z,0
2017-05-11T02:22:38.304Z,0
2017-05-11T02:23:38.910Z,0
2017-05-11T02:24:39.525Z,0
2017-05-11T02:25:40.135Z,0
2017-05-11T02:26:40.753Z,0
2017-05-11T02:27:41.359Z,0
2017-05-11T02:28:41.974Z,0
2017-05-11T02:29:42.580Z,0
2017-05-11T02:30:43.190Z,0
2017-05-11T02:31:43.798Z,0
2017-05-11T02:32:44.408Z,0
2017-05-11T02:33:45.018Z,0
2017-05-11T02:34:45.628Z,0
2017-05-11T02:35:46.239Z,0
2017-05-11T02:36:46.881Z,0
2017-05-11T02:37:47.490Z,0
2017-05-11T02:38:48.100Z,0
2017-05-11T02:39:48.711Z,0
2017-05-11T02:40:49.327Z,0
2017-05-11T02:41:49.936Z,0
2017-05-11T02:42:50.578Z,0
2017-05-11T02:43:51.195Z,0
2017-05-11T02:44:51.808Z,0
2017-05-11T02:45:52.450Z,0
2017-05-11T02:46:53.059Z,0
2017-05-11T02:47:53.675Z,0
2017-05-11T02:48:54.318Z,0
2017-05-11T02:49:54.964Z,0
2017-05-11T02:50:55.611Z,0
2017-05-11T02:51:56.217Z,0
2017-05-11T02:52:56.828Z,0
2017-05-11T02:53:57.438Z,0
2017-05-11T02:54:58.050Z,0
2017-05-11T02:55:58.659Z,0
2017-05-11T02:56:59.275Z,0
2017-05-11T02:57:59.878Z,0
2017-05-11T02:59:00.489Z,0
2017-05-11T03:00:01.099Z,0
2017-05-11T03:01:01.708Z,0
2017-05-11T03:02:02.356Z,0
2017-05-11T03:03:03.013Z,0
2017-05-11T03:04:03.625Z,0
2017-05-11T03:05:04.234Z,0
2017-05-11T03:06:04.849Z,0
2017-05-11T03:07:05.457Z,0
2017-05-11T03:08:06.097Z,0
2017-05-11T03:09:06.707Z,0
2017-05-11T03:10:07.316Z,0
2017-05-11T03:11:07.933Z,0
2017-05-11T03:12:08.541Z,0
2017-05-11T03:13:09.200Z,0
2017-05-11T03:14:09.816Z,0
2017-05-11T03:15:10.466Z,0
2017-05-11T03:16:11.080Z,0
2017-05-11T03:17:11.693Z,0
2017-05-11T03:18:12.355Z,0
2017-05-11T03:19:12.963Z,0
2017-05-11T03:20:13.572Z,0
2017-05-11T03:21:14.182Z,0
2017-05-11T03:22:14.825Z,0
2017-05-11T03:23:15.486Z,0
2017-05-11T03:24:16.097Z,0
2017-05-11T03:25:16.706Z,0
2017-05-11T03:26:17.351Z,0
2017-05-11T03:27:17.961Z,0
2017-05-11T03:28:18.620Z,0
2017-05-11T03:29:19.231Z,0
2017-05-11T03:30:19.845Z,0
2017-05-11T03:31:20.451Z,0
2017-05-11T03:32:21.095Z,0
2017-05-11T03:33:21.753Z,0
2017-05-11T03:34:22.363Z,0
2017-05-11T03:35:22.973Z,0
2017-05-11T03:36:23.617Z,0
2017-05-11T03:37:24.229Z,0
2017-05-11T03:38:24.839Z,0
2017-05-11T03:39:25.457Z,0
2017-05-11T03:40:26.062Z,0
2017-05-11T03:41:26.672Z,0
2017-05-11T03:42:27.282Z,0
2017-05-11T03:43:27.893Z,0
2017-05-11T03:44:28.501Z,0
2017-05-11T03:45:29.111Z,0
2017-05-11T03:46:29.720Z,0
2017-05-11T03:47:30.330Z,0
2017-05-11T03:48:30.971Z,0
2017-05-11T03:49:31.581Z,0
2017-05-11T03:50:32.192Z,0
2017-05-11T03:51:32.801Z,0
2017-05-11T03:52:33.412Z,0
2017-05-11T03:53:34.024Z,0
2017-05-11T03:54:34.634Z,0
2017-05-11T03:55:35.244Z,0
2017-05-11T03:56:35.855Z,0
2017-05-11T03:57:36.469Z,0
2017-05-11T03:58:37.127Z,0
2017-05-11T03:59:37.735Z,0
2017-05-11T04:00:38.344Z,0
2017-05-11T04:01:38.960Z,0
2017-05-11T04:02:39.568Z,0
2017-05-11T04:03:40.180Z,0
2017-05-11T04:04:40.795Z,0
2017-05-11T04:05:41.403Z,0
2017-05-11T04:06:42.013Z,0
2017-05-11T04:07:42.627Z,0
2017-05-11T04:08:43.263Z,0
2017-05-11T04:09:43.873Z,0
2017-05-11T04:10:44.520Z,0
2017-05-11T04:11:45.127Z,0
2017-05-11T04:12:45.736Z,0
2017-05-11T04:13:46.400Z,0
2017-05-11T04:14:47.009Z,0
2017-05-11T04:15:47.653Z,0
2017-05-11T04:16:48.264Z,0
2017-05-11T04:17:48.882Z,0
2017-05-11T04:18:49.491Z,0
2017-05-11T04:19:50.102Z,0
2017-05-11T04:20:50.711Z,0
2017-05-11T04:21:51.323Z,0
2017-05-11T04:22:51.934Z,0
2017-05-11T04:23:52.545Z,0
2017-05-11T04:24:53.162Z,0
2017-05-11T04:25:53.770Z,0
2017-05-11T04:26:54.382Z,0
2017-05-11T04:27:54.998Z,0
2017-05-11T04:28:55.605Z,0
2017-05-11T04:29:56.217Z,0
2017-05-11T04:30:56.827Z,0
2017-05-11T04:31:57.439Z,0
2017-05-11T04:32:58.049Z,0
2017-05-11T04:33:58.715Z,0
2017-05-11T04:34:59.324Z,0
2017-05-11T04:35:59.936Z,0
2017-05-11T04:37:00.553Z,0
2017-05-11T04:38:01.160Z,0
2017-05-11T04:39:01.772Z,0
2017-05-11T04:40:02.386Z,0
2017-05-11T04:41:02.996Z,0
2017-05-11T04:42:03.613Z,0
2017-05-11T04:43:04.221Z,0
2017-05-11T04:44:04.887Z,0
2017-05-11T04:45:05.494Z,0
2017-05-11T04:46:06.110Z,0
2017-05-11T04:47:06.719Z,0
2017-05-11T04:48:07.330Z,0
2017-05-11T04:49:07.944Z,0
2017-05-11T04:50:08.554Z,0
2017-05-11T04:51:09.171Z,0
2017-05-11T04:52:09.779Z,0
2017-05-11T04:53:10.393Z,0
2017-05-11T04:54:11.006Z,0
2017-05-11T04:55:11.656Z,0
2017-05-11T04:56:12.265Z,5
2017-05-11T04:57:12.878Z,5
2017-05-11T04:58:13.488Z,5
2017-05-11T04:59:14.100Z,5
2017-05-11T05:00:14.716Z,5
2017-05-11T05:01:15.328Z,5
2017-05-11T05:02:15.936Z,5
2017-05-11T05:03:16.544Z,5
2017-05-11T05:04:17.206Z,5
2017-05-11T05:05:17.818Z,5
2017-05-11T05:06:18.426Z,5
2017-05-11T05:07:19.042Z,5
2017-05-11T05:08:19.655Z,5
2017-05-11T05:09:20.312Z,5
2017-05-11T05:10:20.922Z,5
2017-05-11T05:11:21.537Z,5
2017-05-11T05:12:22.147Z,5
2017-05-11T05:13:22.763Z,5
2017-05-11T05:14:23.428Z,5
2017-05-11T05:15:24.034Z,5
2017-05-11T05:16:24.644Z,5
2017-05-11T05:17:25.263Z,5
2017-05-11T05:18:25.870Z,5
2017-05-11T05:19:26.483Z,5
2017-05-11T05:20:27.098Z,5
2017-05-11T05:21:27.704Z,5
2017-05-11T05:22:28.322Z,5
2017-05-11T05:23:28.936Z,5
2017-05-11T05:24:29.543Z,5
2017-05-11T05:25:30.161Z,5
2017-05-11T05:26:30.769Z,5
2017-05-11T05:27:31.388Z,5
2017-05-11T05:28:31.994Z,5
2017-05-11T05:29:32.686Z,5
2017-05-11T05:30:33.300Z,5
2017-05-11T05:31:33.910Z,5
2017-05-11T05:32:34.519Z,5
2017-05-11T05:33:35.134Z,5
2017-05-11T05:34:35.798Z,5
2017-05-11T05:35:36.416Z,5
2017-05-11T05:36:37.023Z,10
2017-05-11T05:37:37.669Z,10
2017-05-11T05:38:38.319Z,10
2017-05-11T05:39:38.930Z,10
2017-05-11T05:40:39.544Z,10
2017-05-11T05:41:40.157Z,10
2017-05-11T05:42:40.771Z,10
2017-05-11T05:43:41.387Z,10
2017-05-11T05:44:42.005Z,10
2017-05-11T05:45:42.615Z,10
2017-05-11T05:46:43.225Z,10
2017-05-11T05:47:43.844Z,10
2017-05-11T05:48:44.458Z,10
2017-05-11T05:49:45.071Z,10
2017-05-11T05:50:45.682Z,10
2017-05-11T05:51:46.297Z,10
2017-05-11T05:52:46.910Z,10
2017-05-11T05:53:47.555Z,10
2017-05-11T05:54:48.251Z,10
2017-05-11T05:55:48.863Z,10
2017-05-11T05:56:49.480Z,10
2017-05-11T05:57:50.090Z,10
2017-05-11T05:58:50.704Z,10
2017-05-11T05:59:51.318Z,10
2017-05-11T06:00:51.938Z,10
2017-05-11T06:01:52.548Z,10
2017-05-11T06:02:53.163Z,10
2017-05-11T06:03:53.777Z,10
2017-05-11T06:04:54.442Z,10
2017-05-11T06:05:55.055Z,10
2017-05-11T06:06:55.669Z,10
2017-05-11T06:07:56.284Z,10
2017-05-11T06:08:56.897Z,10
2017-05-11T06:09:57.562Z,10
2017-05-11T06:10:58.176Z,10
2017-05-11T06:11:58.790Z,10
2017-05-11T06:12:59.404Z,10
2017-05-11T06:14:00.019Z,10
2017-05-11T06:15:00.634Z,10
2017-05-11T06:16:01.282Z,10
2017-05-11T06:17:01.895Z,10
2017-05-11T06:18:02.509Z,10
2017-05-11T06:19:03.121Z,10
2017-05-11T06:20:03.784Z,10
2017-05-11T06:21:04.399Z,10
2017-05-11T06:22:05.014Z,10
2017-05-11T06:23:05.627Z,10
2017-05-11T06:24:06.242Z,10
2017-05-11T06:25:06.855Z,10
2017-05-11T06:26:07.474Z,10
2017-05-11T06:27:08.086Z,10
2017-05-11T06:28:08.740Z,10
2017-05-11T06:29:09.354Z,10
2017-05-11T06:30:09.964Z,10
2017-05-11T06:31:10.577Z,10
2017-05-11T06:32:11.222Z,10
2017-05-11T06:33:11.843Z,10
2017-05-11T06:34:12.456Z,10
2017-05-11T06:35:13.075Z,10
2017-05-11T06:36:13.685Z,10
2017-05-11T06:37:14.300Z,10
2017-05-11T06:38:14.945Z,10
2017-05-11T06:39:15.560Z,10
2017-05-11T06:40:16.174Z,10
2017-05-11T06:41:16.787Z,10
2017-05-11T06:42:17.402Z,10
2017-05-11T06:43:18.016Z,10
2017-05-11T06:44:18.629Z,10
2017-05-11T06:45:19.293Z,10
2017-05-11T06:46:19.906Z,10
2017-05-11T06:47:20.524Z,10
2017-05-11T06:48:21.139Z,10
2017-05-11T06:49:21.753Z,10
2017-05-11T06:50:22.421Z,10
2017-05-11T06:51:23.037Z,10
2017-05-11T06:52:23.650Z,10
2017-05-11T06:53:24.271Z,10
2017-05-11T06:54:24.888Z,10
2017-05-11T06:55:25.548Z,15
2017-05-11T06:56:26.165Z,15
2017-05-11T06:57:26.779Z,15
2017-05-11T06:58:27.392Z,15
2017-05-11T06:59:28.010Z,15
2017-05-11T07:00:28.671Z,15
2017-05-11T07:01:29.286Z,15
2017-05-11T07:02:29.907Z,15
2017-05-11T07:03:30.518Z,15
2017-05-11T07:04:31.138Z,15
2017-05-11T07:05:31.828Z,15
2017-05-11T07:06:32.442Z,15
2017-05-11T07:07:33.056Z,15
2017-05-11T07:08:33.683Z,15
2017-05-11T07:09:34.297Z,15
2017-05-11T07:10:34.908Z,15
2017-05-11T07:11:35.520Z,15
2017-05-11T07:12:36.137Z,15
2017-05-11T07:13:36.757Z,15
2017-05-11T07:14:37.368Z,15
2017-05-11T07:15:38.013Z,20
2017-05-11T07:16:38.633Z,20
2017-05-11T07:17:39.242Z,20
2017-05-11T07:18:39.855Z,20
2017-05-11T07:19:40.467Z,20
2017-05-11T07:20:41.163Z,20
2017-05-11T07:21:41.780Z,20
2017-05-11T07:22:42.394Z,20
2017-05-11T07:23:43.009Z,20
2017-05-11T07:24:43.628Z,20
2017-05-11T07:25:44.292Z,20
2017-05-11T07:26:44.903Z,20
2017-05-11T07:27:45.515Z,20
2017-05-11T07:28:46.135Z,20
2017-05-11T07:29:46.752Z,20
2017-05-11T07:30:47.412Z,15
2017-05-11T07:31:48.032Z,15
2017-05-11T07:32:48.646Z,15
2017-05-11T07:33:49.264Z,15
2017-05-11T07:34:49.871Z,15
2017-05-11T07:35:50.536Z,15
2017-05-11T07:36:51.184Z,20
2017-05-11T07:37:51.799Z,20
2017-05-11T07:38:52.412Z,20
2017-05-11T07:39:53.029Z,20
2017-05-11T07:40:53.674Z,20
2017-05-11T07:41:54.289Z,20
2017-05-11T07:42:54.902Z,20
2017-05-11T07:43:55.515Z,20
2017-05-11T07:44:56.138Z,20
2017-05-11T07:45:56.799Z,15
2017-05-11T07:46:57.418Z,15
2017-05-11T07:47:58.029Z,20
2017-05-11T07:48:58.648Z,20
2017-05-11T07:49:59.267Z,20
2017-05-11T07:50:59.927Z,20
2017-05-11T07:52:00.540Z,20
2017-05-11T07:53:01.156Z,20
2017-05-11T07:54:01.806Z,20
2017-05-11T07:55:02.417Z,20
2017-05-11T07:56:03.038Z,20
2017-05-11T07:57:03.651Z,20
2017-05-11T07:58:04.269Z,20
2017-05-11T07:59:04.880Z,20
2017-05-11T08:00:05.533Z,20
2017-05-11T08:01:06.181Z,20
2017-05-11T08:02:06.800Z,20
2017-05-11T08:03:07.407Z,20
2017-05-11T08:04:08.027Z,20
2017-05-11T08:05:08.640Z,20
2017-05-11T08:06:09.261Z,20
2017-05-11T08:07:09.873Z,20
2017-05-11T08:08:10.493Z,20
2017-05-11T08:09:11.104Z,20
2017-05-11T08:10:11.721Z,20
2017-05-11T08:11:12.340Z,20
2017-05-11T08:12:12.951Z,20
2017-05-11T08:13:13.566Z,20
2017-05-11T08:14:14.186Z,25
2017-05-11T08:15:14.797Z,20
2017-05-11T08:16:15.413Z,25
2017-05-11T08:17:16.034Z,20
2017-05-11T08:18:16.645Z,25
2017-05-11T08:19:17.261Z,30
2017-05-11T08:20:17.876Z,25
2017-05-11T08:21:18.493Z,20
2017-05-11T08:22:19.109Z,20
2017-05-11T08:23:19.730Z,20
2017-05-11T08:24:20.348Z,20
2017-05-11T08:25:20.963Z,20
2017-05-11T08:26:21.627Z,20
2017-05-11T08:27:22.276Z,20
2017-05-11T08:28:22.891Z,20
2017-05-11T08:29:23.507Z,20
2017-05-11T08:30:24.123Z,20
2017-05-11T08:31:24.740Z,25
2017-05-11T08:32:25.355Z,25
2017-05-11T08:33:25.977Z,25
2017-05-11T08:34:26.630Z,25
2017-05-11T08:35:27.245Z,25
2017-05-11T08:36:27.859Z,20
2017-05-11T08:37:28.475Z,20
2017-05-11T08:38:29.098Z,25
2017-05-11T08:39:29.711Z,20
2017-05-11T08:40:30.326Z,20
2017-05-11T08:41:30.948Z,20
2017-05-11T08:42:31.561Z,20
2017-05-11T08:43:32.178Z,20
2017-05-11T08:44:32.794Z,20
2017-05-11T08:45:33.411Z,20
2017-05-11T08:46:34.056Z,20
2017-05-11T08:47:34.675Z,20
2017-05-11T08:48:35.296Z,20
2017-05-11T08:49:35.910Z,20
2017-05-11T08:50:36.535Z,20
2017-05-11T08:51:37.149Z,20
2017-05-11T08:52:37.762Z,20
2017-05-11T08:53:38.377Z,20
2017-05-11T08:54:38.993Z,20
2017-05-11T08:55:39.611Z,20
2017-05-11T08:56:40.278Z,20
2017-05-11T08:57:40.891Z,20
2017-05-11T08:58:41.505Z,20
2017-05-11T08:59:42.126Z,20
2017-05-11T09:00:42.745Z,20
2017-05-11T09:01:43.364Z,20
2017-05-11T09:02:43.978Z,20
2017-05-11T09:03:44.594Z,20
2017-05-11T09:04:45.215Z,20
2017-05-11T09:05:45.829Z,20
2017-05-11T09:06:46.443Z,20
2017-05-11T09:07:47.059Z,20
2017-05-11T09:08:47.682Z,15
2017-05-11T09:09:48.297Z,15
2017-05-11T09:10:48.948Z,15
2017-05-11T09:11:49.619Z,15
2017-05-11T09:12:50.237Z,20
2017-05-11T09:13:50.853Z,15
2017-05-11T09:14:51.466Z,15
2017-05-11T09:15:52.093Z,15
2017-05-11T09:16:52.704Z,15
2017-05-11T09:17:53.318Z,15
2017-05-11T09:18:53.933Z,15
2017-05-11T09:19:54.555Z,15
2017-05-11T09:20:55.177Z,15
2017-05-11T09:21:55.785Z,15
2017-05-11T09:22:56.402Z,20
2017-05-11T09:23:57.016Z,20
2017-05-11T09:24:57.636Z,20
2017-05-11T09:25:58.252Z,20
2017-05-11T09:26:58.919Z,25
2017-05-11T09:27:59.544Z,25
2017-05-11T09:29:00.153Z,20
2017-05-11T09:30:00.768Z,20
2017-05-11T09:31:01.387Z,25
2017-05-11T09:32:02.087Z,25
2017-05-11T09:33:02.707Z,25
2017-05-11T09:34:03.318Z,20
2017-05-11T09:35:03.941Z,20
2017-05-11T09:36:04.590Z,20
2017-05-11T09:37:05.215Z,20
2017-05-11T09:38:05.827Z,20
2017-05-11T09:39:06.450Z,20
2017-05-11T09:40:07.062Z,20
2017-05-11T09:41:07.677Z,20
2017-05-11T09:42:08.297Z,20
2017-05-11T09:43:08.912Z,20
2017-05-11T09:44:09.529Z,20
2017-05-11T09:45:10.145Z,20
2017-05-11T09:46:10.764Z,20
2017-05-11T09:47:11.382Z,20
2017-05-11T09:48:12.002Z,20
2017-05-11T09:49:12.621Z,20
2017-05-11T09:50:13.235Z,20
2017-05-11T09:51:13.847Z,15
2017-05-11T09:52:14.464Z,15
2017-05-11T09:53:15.087Z,15
2017-05-11T09:54:15.701Z,15
2017-05-11T09:55:16.317Z,15
2017-05-11T09:56:16.938Z,15
2017-05-11T09:57:17.609Z,15
2017-05-11T09:58:18.223Z,15
2017-05-11T09:59:18.840Z,15
2017-05-11T10:00:19.456Z,15
2017-05-11T10:01:20.074Z,15
2017-05-11T10:02:20.745Z,15
2017-05-11T10:03:21.359Z,15
2017-05-11T10:04:21.976Z,15
2017-05-11T10:05:22.593Z,15
2017-05-11T10:06:23.216Z,15
2017-05-11T10:07:23.829Z,15
2017-05-11T10:08:24.444Z,15
2017-05-11T10:09:25.065Z,15
2017-05-11T10:10:25.678Z,15
2017-05-11T10:11:26.301Z,15
2017-05-11T10:12:26.920Z,15
2017-05-11T10:13:27.531Z,15
2017-05-11T10:14:28.144Z,15
2017-05-11T10:15:28.763Z,15
2017-05-11T10:16:29.380Z,15
2017-05-11T10:17:30.048Z,20
2017-05-11T10:18:30.659Z,20
2017-05-11T10:19:31.278Z,25
2017-05-11T10:20:31.890Z,25
2017-05-11T10:21:32.508Z,25
2017-05-11T10:22:33.178Z,20
2017-05-11T10:23:33.790Z,25
2017-05-11T10:24:34.405Z,25
2017-05-11T10:25:35.023Z,25
2017-05-11T10:26:35.645Z,30
2017-05-11T10:27:36.559Z,30
2017-05-11T10:28:37.180Z,30
2017-05-11T10:29:37.791Z,30
2017-05-11T10:30:38.410Z,30
2017-05-11T10:31:39.061Z,30
2017-05-11T10:32:39.683Z,30
2017-05-11T10:33:40.300Z,35
2017-05-11T10:34:40.915Z,30
2017-05-11T10:35:41.531Z,30
2017-05-11T10:36:42.154Z,30
2017-05-11T10:37:42.767Z,30
2017-05-11T10:38:43.384Z,30
2017-05-11T10:39:43.999Z,25
2017-05-11T10:40:44.618Z,25
2017-05-11T10:41:45.237Z,25
2017-05-11T10:42:45.852Z,25
2017-05-11T10:43:46.470Z,25
2017-05-11T10:44:47.085Z,25
2017-05-11T10:45:47.703Z,25
2017-05-11T10:46:48.319Z,20
2017-05-11T10:47:48.938Z,20
2017-05-11T10:48:49.553Z,20
2017-05-11T10:49:50.175Z,30
2017-05-11T10:50:50.793Z,20
2017-05-11T10:51:51.414Z,25
2017-05-11T10:52:52.031Z,20
2017-05-11T10:53:52.650Z,30
2017-05-11T10:54:53.262Z,20
2017-05-11T10:55:53.879Z,25
2017-05-11T10:56:54.502Z,20
2017-05-11T10:57:55.118Z,25
2017-05-11T10:58:55.733Z,25
2017-05-11T10:59:56.350Z,25
2017-05-11T11:00:56.966Z,20
2017-05-11T11:01:57.590Z,25
2017-05-11T11:02:58.505Z,20
2017-05-11T11:03:59.130Z,20
2017-05-11T11:04:59.742Z,30
2017-05-11T11:06:00.359Z,30
2017-05-11T11:07:00.976Z,25
2017-05-11T11:08:01.649Z,20
2017-05-11T11:09:02.297Z,20
2017-05-11T11:10:02.919Z,20
2017-05-11T11:11:03.531Z,20
2017-05-11T11:12:04.149Z,15
2017-05-11T11:13:04.850Z,15
2017-05-11T11:14:05.507Z,15
2017-05-11T11:15:06.121Z,15
2017-05-11T11:16:06.738Z,15
2017-05-11T11:17:07.355Z,15
2017-05-11T11:18:08.310Z,15
2017-05-11T11:19:08.925Z,15
2017-05-11T11:20:09.544Z,15
2017-05-11T11:21:10.163Z,15
2017-05-11T11:22:10.813Z,15
2017-05-11T11:23:11.628Z,15
2017-05-11T11:24:12.245Z,15
2017-05-11T11:25:12.861Z,15
2017-05-11T11:26:13.510Z,15
2017-05-11T11:27:14.124Z,15
2017-05-11T11:28:14.793Z,15
2017-05-11T11:29:15.410Z,15
2017-05-11T11:30:16.028Z,20
2017-05-11T11:31:16.642Z,20
2017-05-11T11:32:17.259Z,20
2017-05-11T11:33:17.877Z,25
2017-05-11T11:34:18.493Z,25
2017-05-11T11:35:19.144Z,25
2017-05-11T11:36:19.760Z,25
2017-05-11T11:37:20.382Z,25
2017-05-11T11:38:20.995Z,25
2017-05-11T11:39:21.613Z,25
2017-05-11T11:40:22.232Z,25
2017-05-11T11:41:22.848Z,25
2017-05-11T11:42:23.464Z,25
2017-05-11T11:43:24.080Z,25
2017-05-11T11:44:24.701Z,25
2017-05-11T11:45:25.316Z,25
2017-05-11T11:46:25.931Z,30
2017-05-11T11:47:26.548Z,30
2017-05-11T11:48:27.171Z,35
2017-05-11T11:49:27.784Z,30
2017-05-11T11:50:28.402Z,40
2017-05-11T11:51:29.023Z,35
2017-05-11T11:52:29.637Z,35
2017-05-11T11:53:30.553Z,30
2017-05-11T11:54:31.169Z,30
2017-05-11T11:55:31.788Z,30
2017-05-11T11:56:32.405Z,30
2017-05-11T11:57:33.026Z,30
2017-05-11T11:58:33.641Z,30
2017-05-11T11:59:34.258Z,30
2017-05-11T12:00:34.875Z,35
2017-05-11T12:01:35.493Z,35
2017-05-11T12:02:36.108Z,35
2017-05-11T12:03:36.777Z,30
2017-05-11T12:04:37.426Z,25
2017-05-11T12:05:38.049Z,25
2017-05-11T12:06:38.664Z,25
2017-05-11T12:07:39.282Z,25
2017-05-11T12:08:39.949Z,25
2017-05-11T12:09:40.565Z,25
2017-05-11T12:10:41.185Z,25
2017-05-11T12:11:41.800Z,25
2017-05-11T12:12:42.421Z,25
2017-05-11T12:13:43.287Z,25
2017-05-11T12:14:43.909Z,25
2017-05-11T12:15:44.521Z,25
2017-05-11T12:16:45.142Z,25
2017-05-11T12:17:45.765Z,25
2017-05-11T12:18:46.684Z,25
2017-05-11T12:19:47.298Z,25
2017-05-11T12:20:47.947Z,25
2017-05-11T12:21:48.564Z,25
2017-05-11T12:22:49.180Z,25
2017-05-11T12:23:49.800Z,25
2017-05-11T12:24:50.451Z,25
2017-05-11T12:25:51.068Z,25
2017-05-11T12:26:51.686Z,25
2017-05-11T12:27:52.301Z,25
2017-05-11T12:28:53.009Z,25
2017-05-11T12:29:53.588Z,25
2017-05-11T12:30:54.203Z,25
2017-05-11T12:31:54.820Z,25
2017-05-11T12:32:55.436Z,25
2017-05-11T12:33:56.059Z,25
2017-05-11T12:34:56.674Z,25
2017-05-11T12:35:57.290Z,25
2017-05-11T12:36:57.914Z,25
2017-05-11T12:37:58.563Z,30
2017-05-11T12:38:59.180Z,30
2017-05-11T12:39:59.840Z,35
2017-05-11T12:41:00.418Z,35
2017-05-11T12:42:01.033Z,35
2017-05-11T12:43:01.651Z,35
2017-05-11T12:44:02.272Z,50
2017-05-11T12:45:02.892Z,70
2017-05-11T12:46:03.507Z,70
2017-05-11T12:47:04.129Z,40
2017-05-11T12:48:04.749Z,45
2017-05-11T12:49:05.369Z,35
2017-05-11T12:50:05.981Z,35
2017-05-11T12:51:06.599Z,35
2017-05-11T12:52:07.216Z,60
2017-05-11T12:53:07.839Z,40
2017-05-11T12:54:08.505Z,35
2017-05-11T12:55:09.155Z,35
2017-05-11T12:56:09.772Z,30
2017-05-11T12:57:10.390Z,40
2017-05-11T12:58:11.007Z,35
2017-05-11T12:59:11.744Z,35
2017-05-11T13:00:12.322Z,30
2017-05-11T13:01:12.979Z,35
2017-05-11T13:02:13.594Z,35
2017-05-11T13:03:14.228Z,75
2017-05-11T13:04:14.844Z,75
2017-05-11T13:05:15.495Z,30
2017-05-11T13:06:16.115Z,30
2017-05-11T13:07:16.730Z,35
2017-05-11T13:08:17.350Z,30
2017-05-11T13:09:18.021Z,30
2017-05-11T13:10:18.635Z,30
2017-05-11T13:11:19.259Z,30
2017-05-11T13:12:19.882Z,70
2017-05-11T13:13:20.497Z,30
2017-05-11T13:14:21.115Z,25
2017-05-11T13:15:21.738Z,25
2017-05-11T13:16:22.395Z,35
2017-05-11T13:17:23.012Z,35
2017-05-11T13:18:23.631Z,25
2017-05-11T13:19:24.299Z,25
2017-05-11T13:20:24.921Z,25
2017-05-11T13:21:25.540Z,25
2017-05-11T13:22:26.161Z,25
2017-05-11T13:23:26.777Z,25
2017-05-11T13:24:27.445Z,25
2017-05-11T13:25:28.064Z,25
2017-05-11T13:26:28.688Z,25
2017-05-11T13:27:29.303Z,25
2017-05-11T13:28:29.920Z,25
2017-05-11T13:29:30.586Z,25
2017-05-11T13:30:31.212Z,25
2017-05-11T13:31:31.828Z,25
2017-05-11T13:32:32.445Z,25
2017-05-11T13:33:33.069Z,25
2017-05-11T13:34:33.776Z,25
2017-05-11T13:35:34.390Z,25
2017-05-11T13:36:35.014Z,25
2017-05-11T13:37:35.633Z,25
2017-05-11T13:38:36.248Z,25
2017-05-11T13:39:36.867Z,25
2017-05-11T13:40:37.484Z,25
2017-05-11T13:41:38.101Z,30
2017-05-11T13:42:38.719Z,25
2017-05-11T13:43:39.336Z,80
2017-05-11T13:44:39.955Z,25
2017-05-11T13:45:40.573Z,25
2017-05-11T13:46:41.191Z,35
2017-05-11T13:47:41.809Z,25
2017-05-11T13:48:42.427Z,25
2017-05-11T13:49:43.043Z,25
2017-05-11T13:50:43.667Z,25
2017-05-11T13:51:44.283Z,25
2017-05-11T13:52:44.901Z,25
2017-05-11T13:53:45.554Z,30
2017-05-11T13:54:46.168Z,20
2017-05-11T13:55:46.786Z,25
2017-05-11T13:56:47.411Z,25
2017-05-11T13:57:48.033Z,25
2017-05-11T13:58:48.648Z,35
2017-05-11T13:59:49.316Z,30
2017-05-11T14:00:49.944Z,25
2017-05-11T14:01:50.577Z,25
2017-05-11T14:02:51.177Z,25
2017-05-11T14:03:51.793Z,20
2017-05-11T14:04:52.461Z,20
2017-05-11T14:05:53.080Z,20
2017-05-11T14:06:53.705Z,20
2017-05-11T14:07:54.326Z,20
2017-05-11T14:08:54.943Z,20
2017-05-11T14:09:55.643Z,20
2017-05-11T14:10:56.260Z,20
2017-05-11T14:11:56.878Z,25
2017-05-11T14:12:57.496Z,20
2017-05-11T14:13:58.114Z,25
2017-05-11T14:14:58.818Z,20
2017-05-11T14:15:59.435Z,20
2017-05-11T14:17:00.051Z,20
2017-05-11T14:18:00.670Z,20
2017-05-11T14:19:01.287Z,20
2017-05-11T14:20:01.955Z,20
2017-05-11T14:21:02.575Z,25
2017-05-11T14:22:03.197Z,25
2017-05-11T14:23:03.812Z,25
2017-05-11T14:24:04.429Z,30
2017-05-11T14:25:05.048Z,30
2017-05-11T14:26:05.667Z,30
2017-05-11T14:27:06.284Z,30
2017-05-11T14:28:06.940Z,25
2017-05-11T14:29:07.557Z,25
2017-05-11T14:30:08.173Z,20
2017-05-11T14:31:08.791Z,20
2017-05-11T14:32:09.415Z,25
2017-05-11T14:33:10.031Z,25
2017-05-11T14:34:10.649Z,25
2017-05-11T14:35:11.269Z,25
2017-05-11T14:36:11.885Z,25